createdAt,value
2022-12-25T00:01:25.182Z,5.50
2022-12-25T00:03:53.004Z,6.13
2022-12-25T00:06:20.444Z,6.25
2022-12-25T00:08:47.614Z,6.32
2022-12-25T00:11:19.584Z,5.40
2022-12-25T00:13:48.089Z,5.70
2022-12-25T00:16:20.073Z,6.07
2022-12-25T00:18:48.404Z,6.07
2022-12-25T00:21:16.001Z,5.97
2022-12-25T00:23:44.109Z,5.93
2022-12-25T00:26:17.483Z,5.95
2022-12-25T00:28:45.070Z,7.20
2022-12-25T00:31:17.959Z,7.13
2022-12-25T00:33:48.009Z,7.05
2022-12-25T00:36:19.243Z,6.45
2022-12-25T00:38:47.215Z,6.55
2022-12-25T00:41:42.674Z,6.40
2022-12-25T00:44:13.700Z,6.10
2022-12-25T00:46:42.525Z,6.35
2022-12-25T00:49:11.020Z,7.10
2022-12-25T00:51:38.282Z,6.47
2022-12-25T00:54:05.345Z,7.22
2022-12-25T00:56:32.586Z,6.20
2022-12-25T00:58:59.589Z,6.13
2022-12-25T01:01:26.932Z,6.65
2022-12-25T01:03:53.861Z,7.03
2022-12-25T01:06:21.013Z,6.65
2022-12-25T01:09:06.412Z,5.80
2022-12-25T01:11:33.614Z,7.07
2022-12-25T01:14:00.867Z,6.28
2022-12-25T01:16:28.727Z,6.68
2022-12-25T01:18:56.337Z,6.70
2022-12-25T01:21:24.123Z,5.40
2022-12-25T01:23:53.615Z,5.45
2022-12-25T01:26:25.236Z,5.15
2022-12-25T01:28:53.061Z,5.35
2022-12-25T01:31:24.090Z,6.13
2022-12-25T01:33:52.077Z,6.18
2022-12-25T01:36:26.662Z,6.00
2022-12-25T01:38:54.927Z,5.20
2022-12-25T01:41:25.237Z,6.07
2022-12-25T01:44:18.063Z,5.70
2022-12-25T01:46:45.372Z,6.20
2022-12-25T01:49:23.636Z,6.25
2022-12-25T01:52:21.670Z,6.10
2022-12-25T01:54:58.138Z,5.60
2022-12-25T01:57:34.570Z,6.60
2022-12-25T02:00:05.095Z,7.05
2022-12-25T02:02:32.697Z,9.00
2022-12-25T02:05:38.781Z,6.57
2022-12-25T02:08:12.740Z,7.18
2022-12-25T02:10:40.089Z,6.68
2022-12-25T02:13:08.431Z,6.65
2022-12-25T02:16:13.416Z,8.18
2022-12-25T02:18:51.862Z,7.43
2022-12-25T02:22:10.297Z,6.80
2022-12-25T02:25:01.641Z,6.35
2022-12-25T02:28:13.167Z,7.10
2022-12-25T02:30:53.747Z,7.15
2022-12-25T02:33:54.902Z,7.05
2022-12-25T02:36:32.761Z,7.05
2022-12-25T02:39:23.628Z,6.47
2022-12-25T02:41:58.200Z,6.35
2022-12-25T02:44:44.515Z,6.22
2022-12-25T02:47:30.280Z,7.60
2022-12-25T02:50:17.657Z,6.10
2022-12-25T02:53:06.350Z,6.97
2022-12-25T02:55:59.110Z,6.60
2022-12-25T02:58:46.777Z,6.05
2022-12-25T03:01:39.582Z,6.30
2022-12-25T03:04:34.750Z,6.40
2022-12-25T03:07:11.964Z,6.77
2022-12-25T03:10:05.734Z,7.40
2022-12-25T03:12:49.323Z,5.88
2022-12-25T03:15:39.058Z,6.97
2022-12-25T03:18:13.849Z,7.65
2022-12-25T03:23:53.253Z,8.02
2022-12-25T03:26:39.242Z,5.95
2022-12-25T03:29:06.240Z,7.57
2022-12-25T03:32:03.175Z,6.10
2022-12-25T03:35:16.922Z,6.95
2022-12-25T03:38:41.993Z,6.18
2022-12-25T03:41:57.014Z,6.18
2022-12-25T03:45:08.691Z,6.72
2022-12-25T03:48:03.189Z,8.25
2022-12-25T03:51:15.854Z,6.20
2022-12-25T03:54:09.247Z,7.22
2022-12-25T03:56:57.216Z,6.85
2022-12-25T03:59:43.708Z,5.95
2022-12-25T04:02:29.602Z,7.13
2022-12-25T04:05:15.623Z,6.38
2022-12-25T04:08:01.466Z,7.15
2022-12-25T04:13:34.660Z,6.45
2022-12-25T04:16:20.489Z,6.40
2022-12-25T04:19:06.184Z,6.13
2022-12-25T04:24:37.113Z,6.85
2022-12-25T04:27:23.080Z,6.05
2022-12-25T04:30:08.993Z,5.30
2022-12-25T04:35:40.453Z,6.63
2022-12-25T04:38:07.423Z,5.78
2022-12-25T04:40:35.532Z,6.10
2022-12-25T04:43:02.566Z,5.63
2022-12-25T04:45:29.822Z,6.25
2022-12-25T04:48:00.638Z,6.32
2022-12-25T04:50:28.164Z,5.63
2022-12-25T04:52:55.070Z,5.60
2022-12-25T04:55:22.419Z,5.82
2022-12-25T04:57:49.429Z,5.80
2022-12-25T05:00:17.259Z,5.65
2022-12-25T05:02:44.344Z,6.15
2022-12-25T05:05:11.964Z,6.32
2022-12-25T05:07:38.906Z,6.40
2022-12-25T05:10:07.113Z,6.32
2022-12-25T05:12:33.994Z,6.28
2022-12-25T05:15:01.254Z,6.63
2022-12-25T05:17:28.188Z,6.38
2022-12-25T05:19:55.456Z,5.53
2022-12-25T05:22:22.299Z,6.22
2022-12-25T05:24:49.595Z,5.72
2022-12-25T05:27:17.000Z,7.07
2022-12-25T05:29:44.234Z,5.82
2022-12-25T05:32:11.526Z,7.15
2022-12-25T05:34:38.925Z,6.05
2022-12-25T05:37:06.579Z,7.43
2022-12-25T05:39:33.988Z,5.70
2022-12-25T05:42:01.164Z,6.28
2022-12-25T05:44:28.336Z,6.60
2022-12-25T05:46:55.337Z,6.75
2022-12-25T05:49:22.786Z,7.15
2022-12-25T05:51:49.770Z,5.70
2022-12-25T05:54:17.125Z,7.25
2022-12-25T05:56:44.095Z,5.57
2022-12-25T05:59:11.268Z,5.45
2022-12-25T06:01:38.303Z,7.03
2022-12-25T06:04:11.969Z,5.63
2022-12-25T06:06:39.551Z,5.47
2022-12-25T06:09:06.788Z,6.22
2022-12-25T06:11:33.709Z,7.30
2022-12-25T06:14:01.205Z,6.43
2022-12-25T06:16:30.550Z,6.20
2022-12-25T06:19:03.097Z,5.85
2022-12-25T06:21:30.248Z,6.47
2022-12-25T06:23:57.488Z,7.00
2022-12-25T06:26:24.528Z,7.30
2022-12-25T06:28:52.428Z,6.90
2022-12-25T06:31:23.188Z,6.00
2022-12-25T06:33:50.999Z,6.30
2022-12-25T06:36:25.221Z,6.78
2022-12-25T06:38:53.617Z,7.95
2022-12-25T06:41:26.491Z,6.40
2022-12-25T06:43:57.568Z,5.78
2022-12-25T06:46:28.945Z,6.72
2022-12-25T06:48:58.816Z,6.25
2022-12-25T06:51:29.498Z,5.38
2022-12-25T06:53:58.139Z,6.00
2022-12-25T06:56:28.639Z,5.63
2022-12-25T06:59:09.571Z,5.80
2022-12-25T07:01:44.497Z,5.80
2022-12-25T07:04:25.449Z,5.60
2022-12-25T07:06:53.175Z,6.00
2022-12-25T07:09:20.390Z,5.78
2022-12-25T07:11:47.278Z,5.85
2022-12-25T07:14:24.520Z,5.85
2022-12-25T07:16:52.256Z,5.72
2022-12-25T07:19:19.635Z,5.70
2022-12-25T07:21:47.306Z,6.07
2022-12-25T07:24:24.773Z,6.05
2022-12-25T07:26:52.521Z,6.00
2022-12-25T07:29:19.999Z,6.60
2022-12-25T07:31:47.961Z,8.43
2022-12-25T07:34:18.026Z,7.05
2022-12-25T07:36:45.363Z,6.70
2022-12-25T07:39:13.044Z,6.82
2022-12-25T07:41:40.407Z,6.32
2022-12-25T07:44:07.595Z,6.65
2022-12-25T07:46:34.795Z,6.13
2022-12-25T07:49:02.059Z,7.22
2022-12-25T07:51:30.330Z,6.68
2022-12-25T07:53:57.573Z,6.80
2022-12-25T07:56:24.505Z,6.55
2022-12-25T07:58:51.804Z,7.40
2022-12-25T08:01:23.473Z,8.50
2022-12-25T08:04:02.935Z,6.57
2022-12-25T08:06:34.357Z,6.88
2022-12-25T08:09:11.533Z,7.63
2022-12-25T08:11:39.987Z,6.72
2022-12-25T08:14:09.185Z,5.63
2022-12-25T08:16:39.793Z,6.90
2022-12-25T08:19:11.403Z,6.45
2022-12-25T08:21:39.023Z,5.75
2022-12-25T08:24:06.868Z,7.35
2022-12-25T08:26:33.782Z,6.88
2022-12-25T08:29:01.140Z,6.65
2022-12-25T08:31:30.343Z,6.32
2022-12-25T08:33:59.685Z,6.97
2022-12-25T08:36:27.338Z,6.45
2022-12-25T08:39:02.189Z,6.13
2022-12-25T08:41:30.682Z,6.78
2022-12-25T08:43:58.306Z,7.25
2022-12-25T08:46:25.277Z,6.20
2022-12-25T08:48:52.637Z,6.95
2022-12-25T08:51:23.548Z,6.10
2022-12-25T08:53:53.561Z,6.93
2022-12-25T08:56:20.922Z,5.63
2022-12-25T08:58:48.221Z,6.00
2022-12-25T09:01:15.329Z,5.82
2022-12-25T09:03:43.533Z,6.18
2022-12-25T09:06:14.482Z,6.55
2022-12-25T09:08:48.603Z,5.55
2022-12-25T09:11:17.837Z,5.43
2022-12-25T09:13:45.065Z,6.00
2022-12-25T09:16:18.886Z,6.13
2022-12-25T09:18:46.869Z,7.05
2022-12-25T09:21:16.879Z,7.93
2022-12-25T09:23:44.473Z,7.80
2022-12-25T09:26:15.479Z,7.60
2022-12-25T09:28:50.245Z,7.72
2022-12-25T09:31:18.747Z,7.80
2022-12-25T09:33:46.088Z,8.63
2022-12-25T09:36:13.117Z,7.97
2022-12-25T09:38:40.476Z,7.93
2022-12-25T09:41:31.694Z,8.18
2022-12-25T09:44:21.048Z,9.70
2022-12-25T09:46:55.947Z,8.18
2022-12-25T09:50:16.231Z,7.60
2022-12-25T09:52:55.087Z,7.80
2022-12-25T09:55:27.140Z,7.43
2022-12-25T09:57:58.067Z,7.10
2022-12-25T10:00:36.539Z,8.45
2022-12-25T10:03:32.961Z,8.20
2022-12-25T10:07:04.918Z,6.95
2022-12-25T10:09:55.545Z,7.97
2022-12-25T10:13:01.147Z,7.03
2022-12-25T10:15:45.819Z,7.90
2022-12-25T10:18:41.921Z,7.22
2022-12-25T10:21:14.430Z,7.88
2022-12-25T10:23:48.482Z,7.63
2022-12-25T10:26:22.362Z,7.55
2022-12-25T10:29:02.511Z,7.22
2022-12-25T10:31:36.107Z,6.63
2022-12-25T10:34:05.500Z,7.88
2022-12-25T10:36:33.587Z,6.80
2022-12-25T10:39:00.764Z,8.02
2022-12-25T10:41:31.637Z,7.53
2022-12-25T10:43:58.915Z,7.78
2022-12-25T10:46:29.210Z,7.35
2022-12-25T10:49:00.756Z,7.15
2022-12-25T10:51:34.911Z,6.88
2022-12-25T10:54:17.310Z,6.70
2022-12-25T10:56:58.307Z,7.30
2022-12-25T10:59:28.115Z,7.75
2022-12-25T11:02:24.790Z,8.23
2022-12-25T11:05:02.800Z,7.10
2022-12-25T11:07:31.116Z,7.63
2022-12-25T11:10:22.902Z,8.30
2022-12-25T11:12:50.078Z,8.75
2022-12-25T11:15:39.794Z,7.60
2022-12-25T11:18:29.478Z,9.93
2022-12-25T11:21:19.354Z,8.35
2022-12-25T11:23:51.200Z,11.13
2022-12-25T11:26:18.936Z,9.60
2022-12-25T11:28:48.999Z,10.70
2022-12-25T11:31:19.881Z,10.07
2022-12-25T11:34:14.371Z,10.85
2022-12-25T11:36:47.563Z,10.45
2022-12-25T11:39:34.014Z,14.57
2022-12-25T11:42:35.998Z,10.68
2022-12-25T11:45:16.262Z,10.82
2022-12-25T11:48:00.569Z,10.98
2022-12-25T11:50:43.859Z,10.55
2022-12-25T11:53:46.066Z,10.13
2022-12-25T11:56:26.752Z,10.85
2022-12-25T11:59:24.216Z,11.30
2022-12-25T12:02:12.384Z,11.25
2022-12-25T12:04:48.099Z,10.88
2022-12-25T12:07:20.985Z,12.00
2022-12-25T12:10:09.714Z,9.68
2022-12-25T12:13:32.212Z,10.75
2022-12-25T12:15:59.806Z,13.68
2022-12-25T12:18:26.769Z,14.63
2022-12-25T12:21:11.455Z,13.32
2022-12-25T12:24:19.136Z,13.05
2022-12-25T12:27:01.138Z,12.10
2022-12-25T12:29:55.688Z,12.07
2022-12-25T12:32:47.734Z,13.20
2022-12-25T12:35:30.576Z,14.82
2022-12-25T12:38:04.578Z,15.05
2022-12-25T12:40:39.306Z,14.20
2022-12-25T12:45:58.988Z,15.30
2022-12-25T12:48:30.092Z,16.02
2022-12-25T12:51:07.006Z,16.05
2022-12-25T12:53:35.352Z,15.30
2022-12-25T12:56:20.576Z,17.38
2022-12-25T12:58:50.976Z,16.90
2022-12-25T13:01:27.308Z,17.08
2022-12-25T13:04:37.719Z,17.48
2022-12-25T13:07:32.324Z,17.80
2022-12-25T13:10:13.123Z,17.10
2022-12-25T13:12:40.252Z,16.90
2022-12-25T13:15:15.225Z,17.60
2022-12-25T13:17:45.315Z,17.42
2022-12-25T13:20:35.412Z,19.17
2022-12-25T13:23:30.703Z,20.35
2022-12-25T13:26:05.093Z,18.50
2022-12-25T13:28:36.210Z,18.47
2022-12-25T13:31:03.379Z,18.80
2022-12-25T13:33:30.486Z,18.58
2022-12-25T13:35:57.985Z,21.10
2022-12-25T13:38:29.033Z,18.38
2022-12-25T13:41:17.587Z,18.55
2022-12-25T13:43:46.036Z,16.77
2022-12-25T13:46:15.804Z,18.83
2022-12-25T13:48:43.116Z,18.63
2022-12-25T13:51:16.839Z,17.38
2022-12-25T13:53:44.785Z,17.33
2022-12-25T13:56:16.855Z,17.60
2022-12-25T13:58:48.558Z,17.00
2022-12-25T14:01:16.850Z,17.20
2022-12-25T14:03:47.162Z,17.02
2022-12-25T14:06:30.288Z,19.20
2022-12-25T14:08:59.573Z,20.38
2022-12-25T14:11:30.985Z,17.65
2022-12-25T14:14:14.641Z,16.25
2022-12-25T14:16:44.757Z,15.52
2022-12-25T14:19:33.701Z,17.27
2022-12-25T14:22:19.705Z,16.02
2022-12-25T14:24:47.822Z,14.82
2022-12-25T14:27:21.994Z,15.73
2022-12-25T14:29:53.033Z,15.70
2022-12-25T14:32:25.328Z,13.93
2022-12-25T14:35:03.425Z,14.65
2022-12-25T14:37:34.124Z,15.18
2022-12-25T14:40:07.367Z,14.15
2022-12-25T14:42:38.111Z,14.02
2022-12-25T14:45:33.222Z,13.57
2022-12-25T14:48:25.293Z,13.80
2022-12-25T14:51:17.883Z,14.40
2022-12-25T14:53:54.881Z,12.90
2022-12-25T14:56:25.949Z,12.52
2022-12-25T14:58:57.332Z,13.35
2022-12-25T15:01:34.641Z,13.45
2022-12-25T15:04:17.640Z,12.75
2022-12-25T15:07:00.501Z,13.43
2022-12-25T15:09:30.145Z,12.52
2022-12-25T15:11:57.324Z,13.75
2022-12-25T15:14:26.284Z,13.43
2022-12-25T15:17:00.810Z,12.57
2022-12-25T15:19:38.709Z,16.35
2022-12-25T15:22:06.720Z,14.45
2022-12-25T15:24:34.024Z,13.45
2022-12-25T15:27:01.684Z,13.57
2022-12-25T15:32:23.552Z,13.20
2022-12-25T15:34:51.430Z,13.82
2022-12-25T15:37:19.268Z,12.27
2022-12-25T15:39:47.083Z,14.50
2022-12-25T15:42:17.740Z,14.90
2022-12-25T15:44:45.843Z,14.10
2022-12-25T15:47:16.206Z,15.57
2022-12-25T15:49:43.827Z,14.43
2022-12-25T15:52:15.847Z,14.35
2022-12-25T15:54:43.773Z,14.10
2022-12-25T15:57:22.249Z,13.50
2022-12-25T15:59:49.596Z,14.98
2022-12-25T16:02:20.514Z,14.50
2022-12-25T16:04:48.911Z,14.63
2022-12-25T16:07:20.657Z,13.43
2022-12-25T16:09:47.916Z,13.18
2022-12-25T16:12:15.073Z,13.15
2022-12-25T16:14:42.847Z,12.32
2022-12-25T16:17:15.596Z,12.00
2022-12-25T16:19:44.728Z,13.05
2022-12-25T16:22:23.787Z,11.95
2022-12-25T16:24:51.945Z,13.48
2022-12-25T16:27:18.895Z,12.02
2022-12-25T16:29:46.207Z,11.40
2022-12-25T16:32:15.441Z,11.77
2022-12-25T16:34:43.121Z,12.15
2022-12-25T16:37:10.090Z,12.35
2022-12-25T16:39:37.926Z,11.23
2022-12-25T16:42:04.912Z,10.80
2022-12-25T16:44:35.737Z,11.52
2022-12-25T16:47:02.725Z,10.38
2022-12-25T16:49:29.930Z,11.18
2022-12-25T16:51:56.899Z,11.13
2022-12-25T16:54:24.050Z,11.80
2022-12-25T16:56:51.857Z,12.70
2022-12-25T16:59:19.167Z,12.85
2022-12-25T17:01:46.233Z,11.65
2022-12-25T17:04:14.204Z,11.40
2022-12-25T17:06:41.210Z,19.08
2022-12-25T17:09:08.410Z,12.88
2022-12-25T17:11:35.348Z,10.55
2022-12-25T17:14:05.038Z,9.93
2022-12-25T17:16:36.341Z,9.75
2022-12-25T17:19:17.602Z,9.65
2022-12-25T17:21:44.585Z,10.10
2022-12-25T17:24:12.011Z,8.48
2022-12-25T17:26:41.489Z,9.10
2022-12-25T17:29:08.975Z,9.52
2022-12-25T17:31:38.074Z,9.02
2022-12-25T17:34:08.210Z,9.88
2022-12-25T17:36:36.080Z,8.52
2022-12-25T17:39:06.170Z,8.60
2022-12-25T17:41:33.594Z,8.85
2022-12-25T17:44:00.876Z,8.10
2022-12-25T17:46:30.815Z,8.80
2022-12-25T17:49:00.416Z,9.43
2022-12-25T17:51:30.290Z,8.05
2022-12-25T17:54:03.274Z,7.80
2022-12-25T17:56:31.883Z,7.93
2022-12-25T17:59:06.600Z,8.73
2022-12-25T18:01:37.656Z,8.27
2022-12-25T18:04:06.743Z,7.85
2022-12-25T18:06:36.494Z,7.95
2022-12-25T18:09:06.278Z,8.70
2022-12-25T18:11:36.733Z,8.45
2022-12-25T18:14:06.916Z,9.07
2022-12-25T18:16:37.913Z,8.02
2022-12-25T18:19:06.181Z,8.52
2022-12-25T18:21:33.256Z,8.52
2022-12-25T18:24:03.173Z,11.40
2022-12-25T18:26:30.205Z,8.57
2022-12-25T18:28:58.561Z,9.98
2022-12-25T18:31:30.246Z,10.13
2022-12-25T18:33:59.853Z,11.65
2022-12-25T18:36:28.978Z,9.00
2022-12-25T18:38:57.252Z,7.80
2022-12-25T18:41:25.066Z,7.72
2022-12-25T18:43:55.699Z,7.68
2022-12-25T18:46:26.072Z,9.95
2022-12-25T18:48:56.325Z,10.10
2022-12-25T18:51:23.625Z,9.50
2022-12-25T18:53:52.099Z,8.38
2022-12-25T18:56:18.996Z,7.40
2022-12-25T18:58:47.666Z,7.63
2022-12-25T19:01:18.794Z,7.53
2022-12-25T19:03:48.869Z,7.18
2022-12-25T19:06:26.172Z,8.57
2022-12-25T19:08:54.742Z,8.63
2022-12-25T19:11:23.429Z,7.72
2022-12-25T19:13:50.794Z,7.88
2022-12-25T19:16:17.830Z,8.45
2022-12-25T19:18:45.103Z,8.95
2022-12-25T19:21:12.345Z,7.95
2022-12-25T19:23:40.513Z,8.80
2022-12-25T19:26:10.164Z,7.82
2022-12-25T19:28:39.018Z,7.70
2022-12-25T19:31:08.273Z,8.57
2022-12-25T19:33:39.576Z,8.38
2022-12-25T19:36:11.507Z,7.65
2022-12-25T19:38:38.824Z,7.40
2022-12-25T19:41:16.599Z,7.20
2022-12-25T19:43:49.688Z,7.45
2022-12-25T19:46:26.735Z,7.10
2022-12-25T19:48:56.105Z,7.18
2022-12-25T19:51:33.205Z,8.40
2022-12-25T19:54:00.622Z,12.55
2022-12-25T19:56:29.074Z,9.82
2022-12-25T19:58:57.476Z,9.73
2022-12-25T20:01:27.417Z,9.80
2022-12-25T20:03:54.968Z,7.32
2022-12-25T20:06:26.908Z,6.70
2022-12-25T20:09:02.089Z,7.60
2022-12-25T20:13:59.205Z,6.78
2022-12-25T20:16:26.828Z,8.00
2022-12-25T20:18:54.436Z,6.85
2022-12-25T20:21:23.515Z,7.20
2022-12-25T20:23:53.030Z,6.22
2022-12-25T20:26:23.710Z,6.40
2022-12-25T20:28:52.027Z,7.25
2022-12-25T20:31:27.505Z,6.60
2022-12-25T20:33:56.596Z,7.15
2022-12-25T20:36:24.278Z,5.40
2022-12-25T20:38:52.047Z,6.18
2022-12-25T20:41:27.392Z,6.05
2022-12-25T20:43:55.818Z,6.00
2022-12-25T20:46:23.299Z,6.10
2022-12-25T20:48:51.952Z,5.90
2022-12-25T20:51:23.007Z,6.30
2022-12-25T20:53:50.536Z,6.78
2022-12-25T20:56:20.958Z,6.20
2022-12-25T20:58:48.139Z,5.38
2022-12-25T21:01:17.722Z,6.13
2022-12-25T21:03:45.596Z,5.78
2022-12-25T21:06:13.391Z,5.82
2022-12-25T21:08:41.165Z,6.75
2022-12-25T21:11:09.974Z,6.13
2022-12-25T21:13:40.945Z,5.63
2022-12-25T21:16:15.827Z,5.55
2022-12-25T21:18:43.188Z,7.18
2022-12-25T21:21:11.001Z,5.80
2022-12-25T21:23:40.230Z,5.47
2022-12-25T21:26:16.802Z,5.05
2022-12-25T21:28:44.049Z,5.70
2022-12-25T21:31:11.380Z,5.55
2022-12-25T21:33:54.890Z,6.07
2022-12-25T21:36:30.608Z,6.32
2022-12-25T21:39:05.390Z,6.65
2022-12-25T21:41:35.242Z,5.68
2022-12-25T21:44:02.826Z,5.68
2022-12-25T21:46:30.330Z,4.85
2022-12-25T21:48:59.195Z,5.32
2022-12-25T21:51:49.629Z,5.35
2022-12-25T21:54:20.615Z,6.22
2022-12-25T21:56:49.577Z,6.93
2022-12-25T21:59:21.715Z,5.43
2022-12-25T22:01:51.232Z,6.70
2022-12-25T22:04:22.393Z,5.13
2022-12-25T22:07:09.103Z,5.78
2022-12-25T22:09:36.735Z,5.65
2022-12-25T22:12:23.785Z,7.13
2022-12-25T22:14:56.904Z,6.05
2022-12-25T22:17:46.710Z,6.43
2022-12-25T22:20:25.695Z,7.60
2022-12-25T22:22:54.284Z,7.82
2022-12-25T22:25:22.518Z,7.13
2022-12-25T22:27:49.974Z,5.40
2022-12-25T22:30:26.177Z,6.90
2022-12-25T22:32:53.809Z,6.45
2022-12-25T22:35:21.545Z,5.65
2022-12-25T22:37:49.662Z,5.88
2022-12-25T22:40:19.835Z,5.53
2022-12-25T22:42:47.468Z,6.32
2022-12-25T22:45:15.253Z,6.18
2022-12-25T22:47:42.517Z,5.82
2022-12-25T22:50:15.295Z,6.57
2022-12-25T22:52:45.707Z,5.70
2022-12-25T22:55:18.698Z,6.05
2022-12-25T22:57:45.691Z,6.20
2022-12-25T23:00:14.126Z,5.45
2022-12-25T23:02:41.215Z,5.82
2022-12-25T23:05:08.807Z,5.70
2022-12-25T23:07:35.843Z,5.32
2022-12-25T23:10:04.928Z,6.78
2022-12-25T23:12:50.449Z,12.02
2022-12-25T23:15:17.838Z,15.45
2022-12-25T23:18:03.380Z,15.75
2022-12-25T23:20:51.199Z,17.55
2022-12-25T23:23:36.985Z,18.25
2022-12-25T23:26:10.583Z,18.45
2022-12-25T23:28:59.104Z,18.13
2022-12-25T23:31:32.544Z,16.63
2022-12-25T23:34:00.421Z,18.50
2022-12-25T23:36:27.866Z,18.10
2022-12-25T23:38:54.834Z,18.38
2022-12-25T23:41:22.567Z,18.50
2022-12-25T23:43:49.754Z,19.42
2022-12-25T23:46:17.076Z,19.20
2022-12-25T23:48:44.064Z,19.48
2022-12-25T23:51:11.279Z,18.52
2022-12-25T23:53:38.313Z,16.45
2022-12-25T23:56:05.919Z,18.42
2022-12-25T23:58:33.822Z,17.95
